sensor_id;sensor_type;location;lat;lon;timestamp;P1;durP1;ratioP1;P2;durP2;ratioP2
55776;SDS011;54079;44.540;18.784;2022-11-15T00:00:27;108.53;;;73.15;;
55776;SDS011;54079;44.540;18.784;2022-11-15T00:02:54;146.73;;;92.55;;
55776;SDS011;54079;44.540;18.784;2022-11-15T00:05:20;122.30;;;80.68;;
55776;SDS011;54079;44.540;18.784;2022-11-15T00:07:46;122.78;;;78.82;;
55776;SDS011;54079;44.540;18.784;2022-11-15T00:10:12;108.28;;;71.50;;
55776;SDS011;54079;44.540;18.784;2022-11-15T00:12:38;99.95;;;70.32;;
55776;SDS011;54079;44.540;18.784;2022-11-15T00:15:04;149.55;;;92.72;;
55776;SDS011;54079;44.540;18.784;2022-11-15T00:17:31;111.15;;;77.97;;
55776;SDS011;54079;44.540;18.784;2022-11-15T00:19:57;122.47;;;80.30;;
55776;SDS011;54079;44.540;18.784;2022-11-15T00:22:23;120.82;;;78.20;;
55776;SDS011;54079;44.540;18.784;2022-11-15T00:24:49;109.10;;;74.88;;
55776;SDS011;54079;44.540;18.784;2022-11-15T00:27:14;108.97;;;77.30;;
55776;SDS011;54079;44.540;18.784;2022-11-15T00:29:40;110.30;;;76.35;;
55776;SDS011;54079;44.540;18.784;2022-11-15T00:32:11;116.00;;;77.53;;
55776;SDS011;54079;44.540;18.784;2022-11-15T00:34:37;114.93;;;73.25;;
55776;SDS011;54079;44.540;18.784;2022-11-15T00:37:03;109.75;;;73.20;;
55776;SDS011;54079;44.540;18.784;2022-11-15T00:39:29;110.20;;;75.60;;
55776;SDS011;54079;44.540;18.784;2022-11-15T00:41:55;96.75;;;66.53;;
55776;SDS011;54079;44.540;18.784;2022-11-15T00:44:21;104.15;;;70.65;;
55776;SDS011;54079;44.540;18.784;2022-11-15T00:46:47;108.88;;;73.13;;
55776;SDS011;54079;44.540;18.784;2022-11-15T00:49:13;103.40;;;71.28;;
55776;SDS011;54079;44.540;18.784;2022-11-15T00:51:39;96.43;;;64.55;;
55776;SDS011;54079;44.540;18.784;2022-11-15T00:54:05;101.05;;;64.82;;
55776;SDS011;54079;44.540;18.784;2022-11-15T00:56:31;97.50;;;65.90;;
55776;SDS011;54079;44.540;18.784;2022-11-15T00:58:57;100.93;;;71.43;;
55776;SDS011;54079;44.540;18.784;2022-11-15T01:01:23;114.80;;;79.82;;
55776;SDS011;54079;44.540;18.784;2022-11-15T01:03:49;113.43;;;74.97;;
55776;SDS011;54079;44.540;18.784;2022-11-15T01:06:15;116.47;;;75.75;;
55776;SDS011;54079;44.540;18.784;2022-11-15T01:08:40;100.38;;;66.90;;
55776;SDS011;54079;44.540;18.784;2022-11-15T01:11:08;99.63;;;65.03;;
55776;SDS011;54079;44.540;18.784;2022-11-15T01:13:37;90.15;;;62.72;;
55776;SDS011;54079;44.540;18.784;2022-11-15T01:16:11;93.72;;;65.50;;
55776;SDS011;54079;44.540;18.784;2022-11-15T01:18:38;94.72;;;65.97;;
55776;SDS011;54079;44.540;18.784;2022-11-15T01:21:09;113.72;;;73.05;;
55776;SDS011;54079;44.540;18.784;2022-11-15T01:23:36;97.15;;;68.68;;
55776;SDS011;54079;44.540;18.784;2022-11-15T01:26:04;99.88;;;65.85;;
55776;SDS011;54079;44.540;18.784;2022-11-15T01:28:33;105.10;;;66.60;;
55776;SDS011;54079;44.540;18.784;2022-11-15T01:31:00;106.35;;;72.25;;
55776;SDS011;54079;44.540;18.784;2022-11-15T01:33:27;118.63;;;78.70;;
55776;SDS011;54079;44.540;18.784;2022-11-15T01:35:54;111.25;;;72.70;;
55776;SDS011;54079;44.540;18.784;2022-11-15T01:38:20;103.45;;;69.43;;
55776;SDS011;54079;44.540;18.784;2022-11-15T01:40:47;109.15;;;70.78;;
55776;SDS011;54079;44.540;18.784;2022-11-15T01:43:20;113.10;;;75.45;;
55776;SDS011;54079;44.540;18.784;2022-11-15T01:46:36;131.68;;;85.55;;
55776;SDS011;54079;44.540;18.784;2022-11-15T01:48:45;125.95;;;82.00;;
55776;SDS011;54079;44.540;18.784;2022-11-15T01:51:11;124.57;;;85.68;;
55776;SDS011;54079;44.540;18.784;2022-11-15T01:53:41;133.57;;;87.70;;
55776;SDS011;54079;44.540;18.784;2022-11-15T01:56:11;135.57;;;86.35;;
55776;SDS011;54079;44.540;18.784;2022-11-15T01:58:41;128.50;;;87.50;;
55776;SDS011;54079;44.540;18.784;2022-11-15T02:01:09;141.02;;;94.22;;
55776;SDS011;54079;44.540;18.784;2022-11-15T02:03:38;154.43;;;97.53;;
55776;SDS011;54079;44.540;18.784;2022-11-15T02:06:18;152.50;;;97.10;;
55776;SDS011;54079;44.540;18.784;2022-11-15T02:08:45;130.25;;;82.97;;
55776;SDS011;54079;44.540;18.784;2022-11-15T02:11:11;131.40;;;81.22;;
55776;SDS011;54079;44.540;18.784;2022-11-15T02:13:37;128.30;;;84.85;;
55776;SDS011;54079;44.540;18.784;2022-11-15T02:16:06;133.32;;;86.93;;
55776;SDS011;54079;44.540;18.784;2022-11-15T02:18:52;134.82;;;87.50;;
55776;SDS011;54079;44.540;18.784;2022-11-15T02:21:46;118.28;;;80.18;;
55776;SDS011;54079;44.540;18.784;2022-11-15T02:30:24;163.07;;;95.55;;
55776;SDS011;54079;44.540;18.784;2022-11-15T02:37:55;152.35;;;92.22;;
55776;SDS011;54079;44.540;18.784;2022-11-15T02:40:39;161.30;;;101.40;;
55776;SDS011;54079;44.540;18.784;2022-11-15T02:43:11;161.40;;;97.85;;
55776;SDS011;54079;44.540;18.784;2022-11-15T02:46:18;132.18;;;86.88;;
55776;SDS011;54079;44.540;18.784;2022-11-15T02:49:21;124.53;;;77.05;;
55776;SDS011;54079;44.540;18.784;2022-11-15T02:51:50;114.20;;;77.13;;
55776;SDS011;54079;44.540;18.784;2022-11-15T02:54:20;134.63;;;84.05;;
55776;SDS011;54079;44.540;18.784;2022-11-15T02:56:49;112.13;;;76.35;;
55776;SDS011;54079;44.540;18.784;2022-11-15T02:59:28;112.18;;;72.70;;
55776;SDS011;54079;44.540;18.784;2022-11-15T03:07:39;106.07;;;75.93;;
55776;SDS011;54079;44.540;18.784;2022-11-15T03:10:35;102.38;;;66.88;;
55776;SDS011;54079;44.540;18.784;2022-11-15T03:18:32;115.93;;;76.50;;
55776;SDS011;54079;44.540;18.784;2022-11-15T03:21:03;127.03;;;80.78;;
55776;SDS011;54079;44.540;18.784;2022-11-15T03:23:32;115.68;;;75.65;;
55776;SDS011;54079;44.540;18.784;2022-11-15T03:26:00;104.78;;;72.95;;
55776;SDS011;54079;44.540;18.784;2022-11-15T03:28:38;113.07;;;75.38;;
55776;SDS011;54079;44.540;18.784;2022-11-15T03:31:11;127.05;;;79.95;;
55776;SDS011;54079;44.540;18.784;2022-11-15T03:33:59;101.82;;;74.30;;
55776;SDS011;54079;44.540;18.784;2022-11-15T03:36:28;87.18;;;63.67;;
55776;SDS011;54079;44.540;18.784;2022-11-15T03:38:58;112.25;;;77.60;;
55776;SDS011;54079;44.540;18.784;2022-11-15T03:41:40;102.28;;;67.55;;
55776;SDS011;54079;44.540;18.784;2022-11-15T03:44:30;102.72;;;70.03;;
55776;SDS011;54079;44.540;18.784;2022-11-15T03:47:24;109.40;;;76.75;;
55776;SDS011;54079;44.540;18.784;2022-11-15T03:50:17;102.25;;;70.70;;
55776;SDS011;54079;44.540;18.784;2022-11-15T03:52:45;103.22;;;71.15;;
55776;SDS011;54079;44.540;18.784;2022-11-15T03:55:14;105.50;;;71.85;;
55776;SDS011;54079;44.540;18.784;2022-11-15T03:57:43;86.80;;;61.72;;
55776;SDS011;54079;44.540;18.784;2022-11-15T04:00:09;92.05;;;64.40;;
55776;SDS011;54079;44.540;18.784;2022-11-15T04:02:36;94.20;;;66.20;;
55776;SDS011;54079;44.540;18.784;2022-11-15T04:05:02;94.20;;;63.80;;
55776;SDS011;54079;44.540;18.784;2022-11-15T04:07:29;99.95;;;65.53;;
55776;SDS011;54079;44.540;18.784;2022-11-15T04:09:54;101.95;;;68.63;;
55776;SDS011;54079;44.540;18.784;2022-11-15T04:12:34;110.45;;;74.35;;
55776;SDS011;54079;44.540;18.784;2022-11-15T04:15:07;128.10;;;85.75;;
55776;SDS011;54079;44.540;18.784;2022-11-15T04:17:35;115.45;;;77.15;;
55776;SDS011;54079;44.540;18.784;2022-11-15T04:20:14;111.47;;;69.63;;
55776;SDS011;54079;44.540;18.784;2022-11-15T04:23:00;99.30;;;68.30;;
55776;SDS011;54079;44.540;18.784;2022-11-15T04:25:47;102.00;;;70.97;;
55776;SDS011;54079;44.540;18.784;2022-11-15T04:28:16;115.68;;;73.32;;
55776;SDS011;54079;44.540;18.784;2022-11-15T04:30:43;156.82;;;84.30;;
55776;SDS011;54079;44.540;18.784;2022-11-15T04:33:09;349.23;;;107.80;;
55776;SDS011;54079;44.540;18.784;2022-11-15T04:35:35;189.30;;;83.40;;
55776;SDS011;54079;44.540;18.784;2022-11-15T04:38:02;153.73;;;75.18;;
55776;SDS011;54079;44.540;18.784;2022-11-15T04:40:29;291.35;;;80.13;;
55776;SDS011;54079;44.540;18.784;2022-11-15T04:42:55;277.10;;;80.95;;
55776;SDS011;54079;44.540;18.784;2022-11-15T04:45:21;169.88;;;76.60;;
55776;SDS011;54079;44.540;18.784;2022-11-15T04:47:47;383.17;;;94.95;;
55776;SDS011;54079;44.540;18.784;2022-11-15T04:50:14;333.15;;;77.03;;
55776;SDS011;54079;44.540;18.784;2022-11-15T04:52:41;415.60;;;92.00;;
55776;SDS011;54079;44.540;18.784;2022-11-15T04:55:09;176.38;;;75.80;;
55776;SDS011;54079;44.540;18.784;2022-11-15T04:57:35;196.63;;;73.03;;
55776;SDS011;54079;44.540;18.784;2022-11-15T05:00:06;165.55;;;70.65;;
55776;SDS011;54079;44.540;18.784;2022-11-15T05:02:33;231.75;;;71.72;;
55776;SDS011;54079;44.540;18.784;2022-11-15T05:05:18;214.27;;;77.50;;
55776;SDS011;54079;44.540;18.784;2022-11-15T05:07:44;236.35;;;74.13;;
55776;SDS011;54079;44.540;18.784;2022-11-15T05:10:10;407.85;;;94.93;;
55776;SDS011;54079;44.540;18.784;2022-11-15T05:12:36;363.67;;;97.75;;
55776;SDS011;54079;44.540;18.784;2022-11-15T05:15:03;182.27;;;75.72;;
55776;SDS011;54079;44.540;18.784;2022-11-15T05:17:29;316.65;;;79.40;;
55776;SDS011;54079;44.540;18.784;2022-11-15T05:19:55;217.75;;;73.50;;
55776;SDS011;54079;44.540;18.784;2022-11-15T05:22:21;273.48;;;76.05;;
55776;SDS011;54079;44.540;18.784;2022-11-15T05:24:47;166.10;;;63.15;;
55776;SDS011;54079;44.540;18.784;2022-11-15T05:27:13;248.75;;;73.43;;
55776;SDS011;54079;44.540;18.784;2022-11-15T05:29:39;178.50;;;65.50;;
55776;SDS011;54079;44.540;18.784;2022-11-15T05:32:05;182.20;;;65.43;;
55776;SDS011;54079;44.540;18.784;2022-11-15T05:34:33;213.05;;;68.45;;
55776;SDS011;54079;44.540;18.784;2022-11-15T05:37:00;243.00;;;75.07;;
55776;SDS011;54079;44.540;18.784;2022-11-15T05:39:26;280.88;;;80.03;;
55776;SDS011;54079;44.540;18.784;2022-11-15T05:41:56;223.27;;;76.18;;
55776;SDS011;54079;44.540;18.784;2022-11-15T05:44:32;348.00;;;93.45;;
55776;SDS011;54079;44.540;18.784;2022-11-15T05:47:01;241.07;;;79.30;;
55776;SDS011;54079;44.540;18.784;2022-11-15T05:49:30;161.25;;;68.03;;
55776;SDS011;54079;44.540;18.784;2022-11-15T05:51:59;292.08;;;77.82;;
55776;SDS011;54079;44.540;18.784;2022-11-15T05:54:27;221.20;;;73.35;;
55776;SDS011;54079;44.540;18.784;2022-11-15T05:56:53;295.50;;;80.03;;
55776;SDS011;54079;44.540;18.784;2022-11-15T05:59:20;251.07;;;75.57;;
55776;SDS011;54079;44.540;18.784;2022-11-15T06:01:46;321.25;;;91.38;;
55776;SDS011;54079;44.540;18.784;2022-11-15T06:04:12;215.68;;;72.45;;
55776;SDS011;54079;44.540;18.784;2022-11-15T06:06:38;172.43;;;70.47;;
55776;SDS011;54079;44.540;18.784;2022-11-15T06:09:04;253.18;;;74.40;;
55776;SDS011;54079;44.540;18.784;2022-11-15T06:11:30;202.02;;;69.25;;
55776;SDS011;54079;44.540;18.784;2022-11-15T06:13:56;184.70;;;73.10;;
55776;SDS011;54079;44.540;18.784;2022-11-15T06:16:22;109.15;;;63.88;;
55776;SDS011;54079;44.540;18.784;2022-11-15T06:18:48;156.65;;;63.75;;
55776;SDS011;54079;44.540;18.784;2022-11-15T06:21:14;140.60;;;60.10;;
55776;SDS011;54079;44.540;18.784;2022-11-15T06:23:40;164.52;;;64.53;;
55776;SDS011;54079;44.540;18.784;2022-11-15T06:26:07;176.07;;;63.08;;
55776;SDS011;54079;44.540;18.784;2022-11-15T06:28:33;177.73;;;68.03;;
55776;SDS011;54079;44.540;18.784;2022-11-15T06:31:06;161.10;;;66.75;;
55776;SDS011;54079;44.540;18.784;2022-11-15T06:33:38;231.55;;;68.45;;
55776;SDS011;54079;44.540;18.784;2022-11-15T06:36:05;146.23;;;62.35;;
55776;SDS011;54079;44.540;18.784;2022-11-15T06:38:33;146.25;;;64.90;;
55776;SDS011;54079;44.540;18.784;2022-11-15T06:41:03;270.17;;;76.68;;
55776;SDS011;54079;44.540;18.784;2022-11-15T06:43:30;194.70;;;73.30;;
55776;SDS011;54079;44.540;18.784;2022-11-15T06:46:00;301.90;;;75.00;;
55776;SDS011;54079;44.540;18.784;2022-11-15T06:48:27;184.38;;;71.13;;
55776;SDS011;54079;44.540;18.784;2022-11-15T06:50:55;216.10;;;69.20;;
55776;SDS011;54079;44.540;18.784;2022-11-15T06:53:26;151.85;;;52.83;;
55776;SDS011;54079;44.540;18.784;2022-11-15T06:55:52;166.02;;;58.65;;
55776;SDS011;54079;44.540;18.784;2022-11-15T06:58:23;188.27;;;63.70;;
55776;SDS011;54079;44.540;18.784;2022-11-15T07:00:49;170.35;;;66.00;;
55776;SDS011;54079;44.540;18.784;2022-11-15T07:03:15;113.40;;;59.22;;
55776;SDS011;54079;44.540;18.784;2022-11-15T07:05:41;171.30;;;61.78;;
55776;SDS011;54079;44.540;18.784;2022-11-15T07:08:07;111.32;;;49.67;;
55776;SDS011;54079;44.540;18.784;2022-11-15T07:10:33;200.70;;;62.92;;
55776;SDS011;54079;44.540;18.784;2022-11-15T07:12:58;193.65;;;53.45;;
55776;SDS011;54079;44.540;18.784;2022-11-15T07:15:25;163.20;;;50.55;;
55776;SDS011;54079;44.540;18.784;2022-11-15T07:17:51;136.48;;;50.53;;
55776;SDS011;54079;44.540;18.784;2022-11-15T07:20:17;187.20;;;53.55;;
55776;SDS011;54079;44.540;18.784;2022-11-15T07:22:43;86.80;;;44.72;;
55776;SDS011;54079;44.540;18.784;2022-11-15T07:25:12;134.98;;;48.85;;
55776;SDS011;54079;44.540;18.784;2022-11-15T07:27:38;90.45;;;43.20;;
55776;SDS011;54079;44.540;18.784;2022-11-15T07:30:04;89.50;;;44.38;;
55776;SDS011;54079;44.540;18.784;2022-11-15T07:32:30;73.68;;;43.47;;
55776;SDS011;54079;44.540;18.784;2022-11-15T07:34:56;102.03;;;48.88;;
55776;SDS011;54079;44.540;18.784;2022-11-15T07:37:22;90.25;;;46.40;;
55776;SDS011;54079;44.540;18.784;2022-11-15T07:39:48;124.68;;;49.25;;
55776;SDS011;54079;44.540;18.784;2022-11-15T07:42:14;100.55;;;49.72;;
55776;SDS011;54079;44.540;18.784;2022-11-15T07:44:58;160.80;;;55.70;;
55776;SDS011;54079;44.540;18.784;2022-11-15T07:47:24;86.35;;;48.50;;
55776;SDS011;54079;44.540;18.784;2022-11-15T07:49:50;129.30;;;49.08;;
55776;SDS011;54079;44.540;18.784;2022-11-15T07:52:17;67.93;;;45.95;;
55776;SDS011;54079;44.540;18.784;2022-11-15T07:54:43;81.15;;;48.08;;
55776;SDS011;54079;44.540;18.784;2022-11-15T07:57:09;80.53;;;47.22;;
55776;SDS011;54079;44.540;18.784;2022-11-15T07:59:35;132.55;;;48.97;;
55776;SDS011;54079;44.540;18.784;2022-11-15T08:02:01;95.45;;;42.67;;
55776;SDS011;54079;44.540;18.784;2022-11-15T08:04:27;62.42;;;43.63;;
55776;SDS011;54079;44.540;18.784;2022-11-15T08:06:53;61.35;;;44.05;;
55776;SDS011;54079;44.540;18.784;2022-11-15T08:09:19;193.73;;;50.10;;
55776;SDS011;54079;44.540;18.784;2022-11-15T08:11:45;173.82;;;46.70;;
55776;SDS011;54079;44.540;18.784;2022-11-15T08:14:11;68.70;;;41.72;;
55776;SDS011;54079;44.540;18.784;2022-11-15T08:16:37;61.33;;;42.05;;
55776;SDS011;54079;44.540;18.784;2022-11-15T08:19:03;66.13;;;43.10;;
55776;SDS011;54079;44.540;18.784;2022-11-15T08:21:29;52.22;;;41.33;;
55776;SDS011;54079;44.540;18.784;2022-11-15T08:23:55;55.60;;;41.42;;
55776;SDS011;54079;44.540;18.784;2022-11-15T08:26:21;51.40;;;38.53;;
55776;SDS011;54079;44.540;18.784;2022-11-15T08:28:47;53.00;;;40.90;;
55776;SDS011;54079;44.540;18.784;2022-11-15T08:31:17;53.60;;;40.97;;
55776;SDS011;54079;44.540;18.784;2022-11-15T08:33:44;64.63;;;45.45;;
55776;SDS011;54079;44.540;18.784;2022-11-15T08:36:14;47.95;;;39.17;;
55776;SDS011;54079;44.540;18.784;2022-11-15T08:38:41;46.08;;;40.92;;
55776;SDS011;54079;44.540;18.784;2022-11-15T08:41:09;37.05;;;32.38;;
55776;SDS011;54079;44.540;18.784;2022-11-15T08:43:57;40.42;;;36.00;;
55776;SDS011;54079;44.540;18.784;2022-11-15T08:46:23;46.65;;;39.50;;
55776;SDS011;54079;44.540;18.784;2022-11-15T08:48:49;54.92;;;45.00;;
55776;SDS011;54079;44.540;18.784;2022-11-15T08:51:15;55.90;;;45.85;;
55776;SDS011;54079;44.540;18.784;2022-11-15T08:53:41;54.55;;;44.90;;
55776;SDS011;54079;44.540;18.784;2022-11-15T08:56:08;50.17;;;41.92;;
55776;SDS011;54079;44.540;18.784;2022-11-15T08:58:35;50.20;;;40.72;;
55776;SDS011;54079;44.540;18.784;2022-11-15T09:01:02;50.97;;;43.78;;
55776;SDS011;54079;44.540;18.784;2022-11-15T09:03:29;51.88;;;40.80;;
55776;SDS011;54079;44.540;18.784;2022-11-15T09:05:55;49.38;;;41.72;;
55776;SDS011;54079;44.540;18.784;2022-11-15T09:08:22;52.03;;;44.80;;
55776;SDS011;54079;44.540;18.784;2022-11-15T09:10:49;45.28;;;40.38;;
55776;SDS011;54079;44.540;18.784;2022-11-15T09:13:15;47.38;;;41.22;;
55776;SDS011;54079;44.540;18.784;2022-11-15T09:15:41;46.35;;;41.33;;
55776;SDS011;54079;44.540;18.784;2022-11-15T09:18:07;48.03;;;42.17;;
55776;SDS011;54079;44.540;18.784;2022-11-15T09:20:33;62.10;;;47.97;;
55776;SDS011;54079;44.540;18.784;2022-11-15T09:23:00;64.55;;;55.45;;
55776;SDS011;54079;44.540;18.784;2022-11-15T09:25:27;61.03;;;51.70;;
55776;SDS011;54079;44.540;18.784;2022-11-15T09:27:53;55.47;;;47.38;;
55776;SDS011;54079;44.540;18.784;2022-11-15T09:30:19;53.35;;;45.95;;
55776;SDS011;54079;44.540;18.784;2022-11-15T09:32:45;52.35;;;44.25;;
55776;SDS011;54079;44.540;18.784;2022-11-15T09:35:11;55.55;;;46.40;;
55776;SDS011;54079;44.540;18.784;2022-11-15T09:37:37;52.67;;;44.72;;
55776;SDS011;54079;44.540;18.784;2022-11-15T09:40:03;53.83;;;47.42;;
55776;SDS011;54079;44.540;18.784;2022-11-15T09:45:13;54.73;;;45.80;;
55776;SDS011;54079;44.540;18.784;2022-11-15T09:50:31;52.30;;;46.35;;
55776;SDS011;54079;44.540;18.784;2022-11-15T09:53:11;52.22;;;44.22;;
55776;SDS011;54079;44.540;18.784;2022-11-15T09:56:00;51.88;;;44.40;;
55776;SDS011;54079;44.540;18.784;2022-11-15T10:01:02;55.17;;;44.38;;
55776;SDS011;54079;44.540;18.784;2022-11-15T10:03:34;46.08;;;41.08;;
55776;SDS011;54079;44.540;18.784;2022-11-15T10:06:04;42.13;;;37.58;;
55776;SDS011;54079;44.540;18.784;2022-11-15T10:11:14;49.13;;;42.33;;
55776;SDS011;54079;44.540;18.784;2022-11-15T10:13:46;50.60;;;41.33;;
55776;SDS011;54079;44.540;18.784;2022-11-15T10:21:53;53.77;;;47.47;;
55776;SDS011;54079;44.540;18.784;2022-11-15T10:24:23;55.45;;;46.03;;
55776;SDS011;54079;44.540;18.784;2022-11-15T10:26:54;56.67;;;44.92;;
55776;SDS011;54079;44.540;18.784;2022-11-15T10:29:21;53.20;;;46.38;;
55776;SDS011;54079;44.540;18.784;2022-11-15T10:31:48;51.75;;;46.03;;
55776;SDS011;54079;44.540;18.784;2022-11-15T10:36:46;43.38;;;38.78;;
55776;SDS011;54079;44.540;18.784;2022-11-15T10:39:20;42.30;;;36.15;;
55776;SDS011;54079;44.540;18.784;2022-11-15T10:41:46;42.38;;;35.58;;
55776;SDS011;54079;44.540;18.784;2022-11-15T10:46:42;37.08;;;33.03;;
55776;SDS011;54079;44.540;18.784;2022-11-15T10:54:17;49.65;;;41.15;;
55776;SDS011;54079;44.540;18.784;2022-11-15T10:57:22;43.42;;;38.33;;
55776;SDS011;54079;44.540;18.784;2022-11-15T11:00:04;46.00;;;40.70;;
55776;SDS011;54079;44.540;18.784;2022-11-15T11:02:45;43.30;;;37.88;;
55776;SDS011;54079;44.540;18.784;2022-11-15T11:05:36;40.58;;;35.80;;
55776;SDS011;54079;44.540;18.784;2022-11-15T11:10:34;33.22;;;25.65;;
55776;SDS011;54079;44.540;18.784;2022-11-15T11:15:59;41.75;;;35.67;;
55776;SDS011;54079;44.540;18.784;2022-11-15T11:18:42;35.33;;;30.42;;
55776;SDS011;54079;44.540;18.784;2022-11-15T11:21:35;36.60;;;30.40;;
55776;SDS011;54079;44.540;18.784;2022-11-15T11:24:41;30.40;;;25.75;;
55776;SDS011;54079;44.540;18.784;2022-11-15T11:27:40;22.35;;;18.13;;
55776;SDS011;54079;44.540;18.784;2022-11-15T11:39:00;12.90;;;11.53;;
55776;SDS011;54079;44.540;18.784;2022-11-15T11:50:11;23.70;;;19.08;;
55776;SDS011;54079;44.540;18.784;2022-11-15T11:53:01;28.67;;;19.77;;
55776;SDS011;54079;44.540;18.784;2022-11-15T11:55:41;18.88;;;15.95;;
55776;SDS011;54079;44.540;18.784;2022-11-15T12:00:55;19.77;;;17.08;;
55776;SDS011;54079;44.540;18.784;2022-11-15T12:03:30;21.35;;;17.25;;
55776;SDS011;54079;44.540;18.784;2022-11-15T12:06:20;26.13;;;20.35;;
55776;SDS011;54079;44.540;18.784;2022-11-15T12:09:14;20.70;;;18.13;;
55776;SDS011;54079;44.540;18.784;2022-11-15T12:15:02;19.63;;;17.10;;
55776;SDS011;54079;44.540;18.784;2022-11-15T12:17:35;18.20;;;14.75;;
55776;SDS011;54079;44.540;18.784;2022-11-15T12:20:04;17.90;;;16.00;;
55776;SDS011;54079;44.540;18.784;2022-11-15T12:22:56;19.27;;;16.75;;
55776;SDS011;54079;44.540;18.784;2022-11-15T12:25:31;19.08;;;16.35;;
55776;SDS011;54079;44.540;18.784;2022-11-15T12:30:56;20.20;;;16.92;;
55776;SDS011;54079;44.540;18.784;2022-11-15T12:33:39;21.17;;;18.20;;
55776;SDS011;54079;44.540;18.784;2022-11-15T12:36:50;21.10;;;17.98;;
55776;SDS011;54079;44.540;18.784;2022-11-15T12:39:08;28.17;;;23.40;;
55776;SDS011;54079;44.540;18.784;2022-11-15T12:41:36;40.35;;;32.25;;
55776;SDS011;54079;44.540;18.784;2022-11-15T13:07:59;69.03;;;49.85;;
55776;SDS011;54079;44.540;18.784;2022-11-15T13:12:52;71.15;;;50.53;;
55776;SDS011;54079;44.540;18.784;2022-11-15T13:15:45;71.30;;;51.15;;
55776;SDS011;54079;44.540;18.784;2022-11-15T13:18:27;65.75;;;48.13;;
55776;SDS011;54079;44.540;18.784;2022-11-15T13:20:57;69.43;;;50.58;;
55776;SDS011;54079;44.540;18.784;2022-11-15T13:23:24;75.97;;;54.95;;
55776;SDS011;54079;44.540;18.784;2022-11-15T13:31:26;75.95;;;56.80;;
55776;SDS011;54079;44.540;18.784;2022-11-15T13:34:02;77.03;;;55.78;;
55776;SDS011;54079;44.540;18.784;2022-11-15T13:36:41;80.15;;;58.45;;
55776;SDS011;54079;44.540;18.784;2022-11-15T13:39:40;76.95;;;59.33;;
55776;SDS011;54079;44.540;18.784;2022-11-15T13:42:02;80.38;;;59.47;;
55776;SDS011;54079;44.540;18.784;2022-11-15T13:44:29;86.65;;;60.78;;
55776;SDS011;54079;44.540;18.784;2022-11-15T13:47:09;85.90;;;59.90;;
55776;SDS011;54079;44.540;18.784;2022-11-15T13:49:39;83.80;;;62.45;;
55776;SDS011;54079;44.540;18.784;2022-11-15T13:52:06;81.20;;;61.95;;
55776;SDS011;54079;44.540;18.784;2022-11-15T13:54:37;76.78;;;59.08;;
55776;SDS011;54079;44.540;18.784;2022-11-15T14:02:26;69.95;;;50.53;;
55776;SDS011;54079;44.540;18.784;2022-11-15T14:04:57;66.55;;;49.88;;
55776;SDS011;54079;44.540;18.784;2022-11-15T14:07:25;71.55;;;51.28;;
55776;SDS011;54079;44.540;18.784;2022-11-15T14:09:55;63.60;;;49.17;;
55776;SDS011;54079;44.540;18.784;2022-11-15T14:12:28;83.22;;;57.92;;
55776;SDS011;54079;44.540;18.784;2022-11-15T14:15:17;84.13;;;58.28;;
55776;SDS011;54079;44.540;18.784;2022-11-15T14:17:44;92.68;;;62.90;;
55776;SDS011;54079;44.540;18.784;2022-11-15T14:23:18;96.00;;;62.47;;
55776;SDS011;54079;44.540;18.784;2022-11-15T14:25:56;88.75;;;61.63;;
55776;SDS011;54079;44.540;18.784;2022-11-15T14:30:50;87.43;;;63.50;;
55776;SDS011;54079;44.540;18.784;2022-11-15T14:33:19;93.93;;;64.00;;
55776;SDS011;54079;44.540;18.784;2022-11-15T14:36:03;123.35;;;74.68;;
55776;SDS011;54079;44.540;18.784;2022-11-15T14:38:30;137.10;;;76.95;;
55776;SDS011;54079;44.540;18.784;2022-11-15T14:40:56;135.77;;;78.47;;
55776;SDS011;54079;44.540;18.784;2022-11-15T14:43:23;168.35;;;93.20;;
55776;SDS011;54079;44.540;18.784;2022-11-15T14:45:49;208.73;;;103.82;;
55776;SDS011;54079;44.540;18.784;2022-11-15T14:48:15;219.02;;;109.30;;
55776;SDS011;54079;44.540;18.784;2022-11-15T14:50:41;215.50;;;104.80;;
55776;SDS011;54079;44.540;18.784;2022-11-15T14:53:10;207.02;;;100.57;;
55776;SDS011;54079;44.540;18.784;2022-11-15T14:55:38;204.38;;;102.47;;
55776;SDS011;54079;44.540;18.784;2022-11-15T14:58:04;195.48;;;98.15;;
55776;SDS011;54079;44.540;18.784;2022-11-15T15:00:35;196.23;;;98.13;;
55776;SDS011;54079;44.540;18.784;2022-11-15T15:03:03;194.85;;;100.10;;
55776;SDS011;54079;44.540;18.784;2022-11-15T15:05:43;198.20;;;99.60;;
55776;SDS011;54079;44.540;18.784;2022-11-15T15:08:09;200.77;;;101.38;;
55776;SDS011;54079;44.540;18.784;2022-11-15T15:10:42;228.18;;;114.43;;
55776;SDS011;54079;44.540;18.784;2022-11-15T15:15:41;183.57;;;93.53;;
55776;SDS011;54079;44.540;18.784;2022-11-15T15:18:07;169.77;;;94.15;;
55776;SDS011;54079;44.540;18.784;2022-11-15T15:20:40;174.38;;;95.25;;
55776;SDS011;54079;44.540;18.784;2022-11-15T15:23:16;195.88;;;98.05;;
55776;SDS011;54079;44.540;18.784;2022-11-15T15:25:44;158.98;;;87.35;;
55776;SDS011;54079;44.540;18.784;2022-11-15T15:28:11;160.82;;;89.93;;
55776;SDS011;54079;44.540;18.784;2022-11-15T15:30:37;151.23;;;84.30;;
55776;SDS011;54079;44.540;18.784;2022-11-15T15:33:04;165.50;;;91.20;;
55776;SDS011;54079;44.540;18.784;2022-11-15T15:35:30;179.20;;;95.30;;
55776;SDS011;54079;44.540;18.784;2022-11-15T15:37:58;220.52;;;108.35;;
55776;SDS011;54079;44.540;18.784;2022-11-15T15:40:25;205.23;;;107.82;;
55776;SDS011;54079;44.540;18.784;2022-11-15T15:42:53;215.93;;;103.35;;
55776;SDS011;54079;44.540;18.784;2022-11-15T15:45:19;239.23;;;114.55;;
55776;SDS011;54079;44.540;18.784;2022-11-15T15:47:45;211.63;;;104.68;;
55776;SDS011;54079;44.540;18.784;2022-11-15T15:50:26;229.20;;;106.25;;
55776;SDS011;54079;44.540;18.784;2022-11-15T15:52:54;210.23;;;100.50;;
55776;SDS011;54079;44.540;18.784;2022-11-15T15:55:22;190.70;;;98.10;;
55776;SDS011;54079;44.540;18.784;2022-11-15T15:57:49;232.45;;;108.70;;
55776;SDS011;54079;44.540;18.784;2022-11-15T16:00:16;212.73;;;106.95;;
55776;SDS011;54079;44.540;18.784;2022-11-15T16:02:43;185.00;;;97.57;;
55776;SDS011;54079;44.540;18.784;2022-11-15T16:05:09;157.00;;;83.70;;
55776;SDS011;54079;44.540;18.784;2022-11-15T16:07:35;141.70;;;77.95;;
55776;SDS011;54079;44.540;18.784;2022-11-15T16:12:45;140.35;;;75.97;;
55776;SDS011;54079;44.540;18.784;2022-11-15T16:15:11;135.13;;;73.63;;
55776;SDS011;54079;44.540;18.784;2022-11-15T16:17:38;150.32;;;80.18;;
55776;SDS011;54079;44.540;18.784;2022-11-15T16:20:14;124.88;;;70.25;;
55776;SDS011;54079;44.540;18.784;2022-11-15T16:22:56;108.80;;;63.88;;
55776;SDS011;54079;44.540;18.784;2022-11-15T16:25:22;147.05;;;78.03;;
55776;SDS011;54079;44.540;18.784;2022-11-15T16:27:49;163.75;;;84.70;;